createdAt,value
2023-01-30T00:01:34.279Z,75.42
2023-01-30T00:04:00.918Z,75.25
2023-01-30T00:06:27.856Z,75.00
2023-01-30T00:08:54.809Z,75.31
2023-01-30T00:11:21.728Z,75.14
2023-01-30T00:13:50.484Z,75.09
2023-01-30T00:16:18.472Z,75.54
2023-01-30T00:18:45.071Z,75.18
2023-01-30T00:21:13.632Z,75.27
2023-01-30T00:23:40.359Z,75.38
2023-01-30T00:26:07.251Z,75.41
2023-01-30T00:28:34.483Z,75.28
2023-01-30T00:31:01.058Z,75.44
2023-01-30T00:33:27.876Z,75.42
2023-01-30T00:35:56.119Z,75.47
2023-01-30T00:38:23.944Z,75.45
2023-01-30T00:40:50.815Z,75.29
2023-01-30T00:43:38.080Z,75.18
2023-01-30T00:46:33.868Z,75.17
2023-01-30T00:49:00.345Z,75.35
2023-01-30T00:51:26.828Z,75.36
2023-01-30T00:53:53.289Z,75.24
2023-01-30T00:56:19.919Z,75.68
2023-01-30T00:58:46.449Z,75.43
2023-01-30T01:01:12.798Z,75.61
2023-01-30T01:03:39.355Z,75.56
2023-01-30T01:06:06.184Z,75.89
2023-01-30T01:08:32.666Z,75.72
2023-01-30T01:10:59.205Z,75.72
2023-01-30T01:13:25.824Z,75.84
2023-01-30T01:15:52.348Z,76.00
2023-01-30T01:18:18.781Z,76.29
2023-01-30T01:20:45.736Z,76.36
2023-01-30T01:23:12.297Z,76.48
2023-01-30T01:25:38.822Z,76.39
2023-01-30T01:28:05.554Z,76.44
2023-01-30T01:30:32.013Z,76.87
2023-01-30T01:32:58.555Z,77.16
2023-01-30T01:35:25.030Z,77.24
2023-01-30T01:37:55.337Z,77.48
2023-01-30T01:40:41.715Z,77.62
2023-01-30T01:43:23.249Z,77.92
2023-01-30T01:45:53.625Z,77.96
2023-01-30T01:48:29.004Z,78.03
2023-01-30T01:51:01.808Z,77.73
2023-01-30T01:53:36.256Z,78.19
2023-01-30T01:56:05.409Z,78.04
2023-01-30T01:58:37.118Z,78.18
2023-01-30T02:01:03.901Z,78.37
2023-01-30T02:03:34.883Z,78.81
2023-01-30T02:06:03.363Z,78.79
2023-01-30T02:08:42.172Z,79.24
2023-01-30T02:11:14.802Z,78.85
2023-01-30T02:13:41.389Z,78.86
2023-01-30T02:16:09.404Z,79.19
2023-01-30T02:18:39.157Z,79.12
2023-01-30T02:21:30.528Z,79.53
2023-01-30T02:24:16.267Z,79.63
2023-01-30T02:26:49.995Z,79.02
2023-01-30T02:29:22.263Z,79.06
2023-01-30T02:32:29.651Z,79.22
2023-01-30T02:35:14.215Z,79.04
2023-01-30T02:38:11.890Z,78.99
2023-01-30T02:40:49.241Z,78.88
2023-01-30T02:44:00.776Z,79.09
2023-01-30T02:46:32.573Z,79.04
2023-01-30T02:49:11.416Z,79.05
2023-01-30T02:51:39.736Z,79.00
2023-01-30T02:54:08.133Z,79.13
2023-01-30T02:56:46.738Z,79.15
2023-01-30T02:59:18.238Z,79.13
2023-01-30T03:01:59.687Z,79.07
2023-01-30T03:04:56.839Z,79.29
2023-01-30T03:07:26.458Z,79.12
2023-01-30T03:10:11.340Z,79.33
2023-01-30T03:12:59.843Z,79.37
2023-01-30T03:15:49.352Z,79.48
2023-01-30T03:18:17.927Z,79.04
2023-01-30T03:20:44.571Z,79.79
2023-01-30T03:23:11.156Z,79.74
2023-01-30T03:25:41.976Z,79.65
2023-01-30T03:28:09.626Z,79.76
2023-01-30T03:30:36.331Z,79.68
2023-01-30T03:33:02.844Z,79.94
2023-01-30T03:35:30.218Z,79.91
2023-01-30T03:37:58.140Z,79.71
2023-01-30T03:40:24.811Z,79.88
2023-01-30T03:42:51.315Z,80.02
2023-01-30T03:45:18.183Z,80.14
2023-01-30T03:47:44.833Z,79.94
2023-01-30T03:50:11.397Z,80.14
2023-01-30T03:52:38.172Z,80.26
2023-01-30T03:55:05.137Z,80.52
2023-01-30T03:57:31.719Z,80.24
2023-01-30T03:59:58.304Z,80.39
2023-01-30T04:02:26.265Z,80.26
2023-01-30T04:04:53.274Z,80.47
2023-01-30T04:07:19.978Z,80.62
2023-01-30T04:09:46.575Z,80.70
2023-01-30T04:12:13.301Z,80.65
2023-01-30T04:14:39.890Z,80.89
2023-01-30T04:17:06.376Z,80.85
2023-01-30T04:19:33.372Z,80.75
2023-01-30T04:21:59.936Z,80.89
2023-01-30T04:24:26.458Z,80.84
2023-01-30T04:26:52.955Z,81.02
2023-01-30T04:29:19.392Z,80.97
2023-01-30T04:31:45.875Z,80.78
2023-01-30T04:34:12.342Z,81.13
2023-01-30T04:36:38.912Z,80.69
2023-01-30T04:39:05.353Z,80.59
2023-01-30T04:41:31.979Z,80.89
2023-01-30T04:46:23.655Z,80.96
2023-01-30T04:48:50.104Z,81.00
2023-01-30T04:51:16.570Z,80.76
2023-01-30T04:53:43.051Z,80.89
2023-01-30T04:56:09.545Z,80.84
2023-01-30T04:58:36.059Z,80.55
2023-01-30T05:01:25.815Z,80.62
2023-01-30T05:03:55.915Z,80.54
2023-01-30T05:06:22.949Z,80.26
2023-01-30T05:08:50.627Z,80.58
2023-01-30T05:11:17.866Z,80.36
2023-01-30T05:13:44.554Z,80.46
2023-01-30T05:16:12.391Z,80.16
2023-01-30T05:18:38.950Z,80.02
2023-01-30T05:21:12.967Z,79.91
2023-01-30T05:23:39.565Z,79.61
2023-01-30T05:26:06.553Z,80.06
2023-01-30T05:28:33.464Z,80.05
2023-01-30T05:31:07.209Z,79.70
2023-01-30T05:33:33.835Z,79.83
2023-01-30T05:36:00.377Z,79.83
2023-01-30T05:38:27.540Z,80.11
2023-01-30T05:41:05.860Z,79.63
2023-01-30T05:43:33.462Z,79.74
2023-01-30T05:46:01.876Z,79.93
2023-01-30T05:48:28.994Z,79.92
2023-01-30T05:50:57.313Z,80.05
2023-01-30T05:53:26.526Z,80.27
2023-01-30T05:56:01.354Z,79.74
2023-01-30T05:58:28.354Z,79.80
2023-01-30T06:00:55.224Z,79.48
2023-01-30T06:03:21.781Z,79.80
2023-01-30T06:05:48.373Z,79.98
2023-01-30T06:08:14.985Z,79.52
2023-01-30T06:10:41.473Z,79.58
2023-01-30T06:13:11.002Z,79.87
2023-01-30T06:15:37.689Z,79.47
2023-01-30T06:18:04.171Z,79.56
2023-01-30T06:20:30.810Z,79.48
2023-01-30T06:22:57.320Z,79.58
2023-01-30T06:25:23.857Z,79.14
2023-01-30T06:27:50.294Z,79.17
2023-01-30T06:30:16.966Z,79.16
2023-01-30T06:33:06.908Z,77.94
2023-01-30T06:35:34.065Z,78.40
2023-01-30T06:38:15.157Z,77.72
2023-01-30T06:40:45.358Z,77.92
2023-01-30T06:43:12.179Z,77.98
2023-01-30T06:45:38.758Z,77.92
2023-01-30T06:48:05.397Z,77.80
2023-01-30T06:50:32.461Z,77.84
2023-01-30T06:53:03.896Z,77.07
2023-01-30T06:55:31.215Z,77.65
2023-01-30T06:58:06.866Z,76.88
2023-01-30T07:00:40.564Z,77.24
2023-01-30T07:03:25.514Z,76.33
2023-01-30T07:05:59.240Z,77.13
2023-01-30T07:08:25.876Z,77.38
2023-01-30T07:10:52.607Z,77.21
2023-01-30T07:13:19.128Z,77.37
2023-01-30T07:15:46.524Z,77.42
2023-01-30T07:18:13.364Z,77.28
2023-01-30T07:20:41.397Z,77.64
2023-01-30T07:23:08.114Z,77.80
2023-01-30T07:25:34.678Z,77.45
2023-01-30T07:28:02.997Z,77.45
2023-01-30T07:30:32.387Z,76.92
2023-01-30T07:33:00.181Z,77.30
2023-01-30T07:35:28.921Z,76.87
2023-01-30T07:37:55.398Z,77.35
2023-01-30T07:40:22.195Z,77.25
2023-01-30T07:43:07.158Z,75.82
2023-01-30T07:45:38.244Z,76.79
2023-01-30T07:48:05.032Z,77.22
2023-01-30T07:50:31.551Z,77.35
2023-01-30T07:52:58.042Z,77.47
2023-01-30T07:55:24.745Z,77.44
2023-01-30T07:57:51.197Z,77.44
2023-01-30T08:00:18.521Z,77.27
2023-01-30T08:02:45.279Z,77.08
2023-01-30T08:05:11.779Z,76.97
2023-01-30T08:07:38.216Z,76.83
2023-01-30T08:10:05.110Z,76.54
2023-01-30T08:12:31.590Z,76.25
2023-01-30T08:14:58.055Z,76.68
2023-01-30T08:17:24.567Z,76.78
2023-01-30T08:19:51.073Z,76.88
2023-01-30T08:22:17.540Z,76.92
2023-01-30T08:24:44.153Z,77.04
2023-01-30T08:27:10.813Z,77.15
2023-01-30T08:29:37.291Z,77.18
2023-01-30T08:32:03.921Z,77.23
2023-01-30T08:34:30.304Z,76.70
2023-01-30T08:36:56.731Z,76.91
2023-01-30T08:39:23.287Z,76.78
2023-01-30T08:41:49.986Z,76.49
2023-01-30T08:44:16.493Z,76.06
2023-01-30T08:46:43.106Z,76.73
2023-01-30T08:49:10.381Z,75.90
2023-01-30T08:51:36.909Z,76.37
2023-01-30T08:54:03.357Z,75.87
2023-01-30T08:56:29.798Z,75.93
2023-01-30T08:58:56.328Z,76.07
2023-01-30T09:01:22.798Z,76.08
2023-01-30T09:03:49.207Z,76.28
2023-01-30T09:06:15.758Z,75.86
2023-01-30T09:08:42.518Z,75.74
2023-01-30T09:11:11.082Z,74.96
2023-01-30T09:13:40.931Z,75.32
2023-01-30T09:16:07.320Z,75.40
2023-01-30T09:18:33.697Z,75.59
2023-01-30T09:21:04.898Z,74.85
2023-01-30T09:23:31.868Z,75.56
2023-01-30T09:25:58.325Z,75.31
2023-01-30T09:28:24.829Z,75.37
2023-01-30T09:30:51.409Z,75.59
2023-01-30T09:33:20.394Z,75.48
2023-01-30T09:35:48.557Z,75.47
2023-01-30T09:38:15.432Z,75.59
2023-01-30T09:40:54.489Z,74.05
2023-01-30T09:43:38.040Z,72.95
2023-01-30T09:46:23.728Z,74.13
2023-01-30T09:49:01.023Z,75.74
2023-01-30T09:51:40.709Z,74.55
2023-01-30T09:54:24.256Z,74.48
2023-01-30T09:57:22.092Z,74.30
2023-01-30T10:00:17.347Z,73.86
2023-01-30T10:03:08.588Z,74.17
2023-01-30T10:05:44.261Z,75.28
2023-01-30T10:08:19.834Z,73.19
2023-01-30T10:11:17.965Z,73.10
2023-01-30T10:14:05.657Z,73.17
2023-01-30T10:17:04.605Z,72.92
2023-01-30T10:19:50.197Z,73.49
2023-01-30T10:22:41.500Z,73.14
2023-01-30T10:25:23.165Z,75.69
2023-01-30T10:28:01.217Z,73.44
2023-01-30T10:30:27.980Z,75.04
2023-01-30T10:33:03.305Z,74.10
2023-01-30T10:35:35.955Z,74.33
2023-01-30T10:38:26.396Z,72.88
2023-01-30T10:41:01.214Z,72.92
2023-01-30T10:46:50.956Z,73.62
2023-01-30T10:49:39.709Z,73.55
2023-01-30T10:52:29.621Z,71.88
2023-01-30T10:55:02.348Z,72.56
2023-01-30T10:57:59.688Z,71.76
2023-01-30T11:00:57.645Z,72.30
2023-01-30T11:03:37.743Z,71.77
2023-01-30T11:06:23.892Z,71.98
2023-01-30T11:08:51.673Z,74.29
2023-01-30T11:11:42.372Z,71.76
2023-01-30T11:14:11.345Z,74.40
2023-01-30T11:16:48.284Z,71.92
2023-01-30T11:19:21.173Z,73.86
2023-01-30T11:21:51.786Z,74.57
2023-01-30T11:24:40.896Z,74.42
2023-01-30T11:27:29.180Z,72.49
2023-01-30T11:30:04.740Z,72.67
2023-01-30T11:32:31.322Z,74.98
2023-01-30T11:35:07.122Z,73.50
2023-01-30T11:37:36.567Z,76.70
2023-01-30T11:40:18.568Z,71.82
2023-01-30T11:42:49.818Z,74.70
2023-01-30T11:45:18.556Z,73.67
2023-01-30T11:47:57.639Z,69.91
2023-01-30T11:50:34.870Z,70.74
2023-01-30T11:53:05.176Z,70.44
2023-01-30T11:55:35.372Z,71.78
2023-01-30T11:58:05.876Z,71.89
2023-01-30T12:00:39.669Z,68.81
2023-01-30T12:03:12.074Z,70.85
2023-01-30T12:05:42.556Z,71.06
2023-01-30T12:08:12.150Z,69.02
2023-01-30T12:10:43.854Z,68.68
2023-01-30T12:13:21.653Z,67.76
2023-01-30T12:15:55.347Z,69.51
2023-01-30T12:18:37.330Z,67.71
2023-01-30T12:21:24.452Z,67.28
2023-01-30T12:24:06.504Z,67.40
2023-01-30T12:27:05.121Z,68.18
2023-01-30T12:29:41.030Z,69.76
2023-01-30T12:32:19.798Z,72.00
2023-01-30T12:34:47.957Z,75.85
2023-01-30T12:37:20.258Z,74.71
2023-01-30T12:40:26.204Z,72.67
2023-01-30T12:43:01.672Z,77.59
2023-01-30T12:45:34.619Z,75.39
2023-01-30T12:48:04.099Z,75.11
2023-01-30T12:50:47.242Z,70.09
2023-01-30T12:53:19.663Z,68.92
2023-01-30T12:56:01.645Z,70.86
2023-01-30T12:58:37.012Z,68.02
2023-01-30T13:01:28.092Z,69.42
2023-01-30T13:04:13.891Z,66.66
2023-01-30T13:06:43.478Z,68.33
2023-01-30T13:09:31.566Z,68.25
2023-01-30T13:12:27.639Z,69.01
2023-01-30T13:14:57.167Z,71.05
2023-01-30T13:18:05.196Z,70.60
2023-01-30T13:20:34.490Z,72.46
2023-01-30T13:23:22.026Z,71.01
2023-01-30T13:26:04.930Z,71.15
2023-01-30T13:29:14.700Z,71.29
2023-01-30T13:31:50.805Z,72.57
2023-01-30T13:34:38.656Z,71.97
2023-01-30T13:37:14.079Z,73.93
2023-01-30T13:40:21.505Z,72.98
2023-01-30T13:43:03.060Z,74.00
2023-01-30T13:45:33.259Z,75.94
2023-01-30T13:48:30.884Z,72.71
2023-01-30T13:51:28.398Z,70.35
2023-01-30T13:54:09.151Z,71.75
2023-01-30T13:57:03.618Z,71.80
2023-01-30T13:59:36.127Z,71.27
2023-01-30T14:02:10.086Z,72.28
2023-01-30T14:04:39.630Z,73.70
2023-01-30T14:07:11.904Z,70.27
2023-01-30T14:10:09.445Z,68.04
2023-01-30T14:12:40.294Z,69.30
2023-01-30T14:15:12.807Z,67.39
2023-01-30T14:17:56.368Z,69.30
2023-01-30T14:20:27.753Z,69.58
2023-01-30T14:23:21.979Z,68.00
2023-01-30T14:25:56.595Z,68.46
2023-01-30T14:28:29.100Z,70.52
2023-01-30T14:31:01.281Z,69.14
2023-01-30T14:33:31.933Z,70.58
2023-01-30T14:35:58.362Z,70.35
2023-01-30T14:38:32.804Z,68.42
2023-01-30T14:40:59.677Z,70.85
2023-01-30T14:43:41.484Z,68.59
2023-01-30T14:46:20.154Z,68.65
2023-01-30T14:48:56.854Z,71.04
2023-01-30T14:51:32.775Z,69.91
2023-01-30T14:54:14.817Z,69.32
2023-01-30T14:56:57.062Z,68.78
2023-01-30T14:59:29.239Z,71.79
2023-01-30T15:02:13.628Z,69.70
2023-01-30T15:05:03.283Z,69.84
2023-01-30T15:08:24.221Z,70.33
2023-01-30T15:11:15.172Z,70.34
2023-01-30T15:14:12.111Z,69.57
2023-01-30T15:16:38.756Z,72.23
2023-01-30T15:19:23.595Z,72.38
2023-01-30T15:22:13.787Z,70.25
2023-01-30T15:24:46.504Z,72.09
2023-01-30T15:27:34.862Z,71.77
2023-01-30T15:30:24.771Z,70.12
2023-01-30T15:33:09.061Z,68.45
2023-01-30T15:35:35.502Z,72.32
2023-01-30T15:38:01.953Z,72.21
2023-01-30T15:40:29.748Z,72.25
2023-01-30T15:43:18.169Z,72.50
2023-01-30T15:46:01.121Z,72.29
2023-01-30T15:48:33.773Z,71.19
2023-01-30T15:51:01.618Z,71.82
2023-01-30T15:53:31.689Z,71.48
2023-01-30T15:56:01.197Z,71.18
2023-01-30T15:58:29.852Z,72.01
2023-01-30T16:00:59.585Z,71.59
2023-01-30T16:03:29.986Z,71.18
2023-01-30T16:05:58.219Z,72.25
2023-01-30T16:08:30.293Z,71.92
2023-01-30T16:10:56.935Z,72.60
2023-01-30T16:13:24.485Z,72.41
2023-01-30T16:15:58.159Z,71.86
2023-01-30T16:18:49.255Z,70.64
2023-01-30T16:21:19.885Z,71.80
2023-01-30T16:24:06.516Z,70.17
2023-01-30T16:26:35.162Z,72.09
2023-01-30T16:29:07.543Z,70.93
2023-01-30T16:31:37.458Z,72.02
2023-01-30T16:34:04.664Z,72.39
2023-01-30T16:36:38.746Z,71.80
2023-01-30T16:39:43.093Z,70.38
2023-01-30T16:42:24.137Z,70.47
2023-01-30T16:47:31.506Z,72.44
2023-01-30T16:49:57.977Z,72.46
2023-01-30T16:52:37.001Z,70.20
2023-01-30T16:55:08.133Z,71.46
2023-01-30T16:57:40.346Z,71.56
2023-01-30T17:00:31.544Z,72.09
2023-01-30T17:03:00.739Z,72.15
2023-01-30T17:05:30.230Z,72.17
2023-01-30T17:07:58.176Z,72.11
2023-01-30T17:10:40.015Z,70.78
2023-01-30T17:13:31.936Z,70.22
2023-01-30T17:16:36.507Z,70.61
2023-01-30T17:19:06.167Z,72.78
2023-01-30T17:21:45.122Z,71.43
2023-01-30T17:24:15.591Z,72.10
2023-01-30T17:26:58.831Z,69.93
2023-01-30T17:29:42.016Z,70.31
2023-01-30T17:32:13.337Z,69.80
2023-01-30T17:34:43.555Z,71.23
2023-01-30T17:37:15.321Z,71.31
2023-01-30T17:39:41.752Z,72.01
2023-01-30T17:42:13.482Z,71.50
2023-01-30T17:44:40.700Z,72.36
2023-01-30T17:47:10.962Z,72.18
2023-01-30T17:49:37.491Z,72.98
2023-01-30T17:52:04.068Z,73.00
2023-01-30T17:54:30.514Z,73.65
2023-01-30T17:57:22.849Z,72.99
2023-01-30T17:59:49.256Z,73.96
2023-01-30T18:02:15.711Z,74.09
2023-01-30T18:04:42.148Z,74.33
2023-01-30T18:07:14.223Z,73.59
2023-01-30T18:09:40.608Z,74.43
2023-01-30T18:12:07.045Z,74.72
2023-01-30T18:14:33.462Z,74.87
2023-01-30T18:17:01.091Z,74.41
2023-01-30T18:19:29.508Z,74.50
2023-01-30T18:21:58.137Z,74.62
2023-01-30T18:24:24.737Z,74.47
2023-01-30T18:26:51.551Z,74.26
2023-01-30T18:29:24.060Z,74.42
2023-01-30T18:31:50.608Z,74.67
2023-01-30T18:34:17.134Z,74.84
2023-01-30T18:36:43.659Z,74.78
2023-01-30T18:39:12.239Z,74.34
2023-01-30T18:41:38.579Z,74.35
2023-01-30T18:44:06.442Z,74.83
2023-01-30T18:46:33.642Z,74.94
2023-01-30T18:49:00.310Z,74.63
2023-01-30T18:51:29.251Z,74.71
2023-01-30T18:54:07.740Z,73.33
2023-01-30T18:56:35.027Z,74.89
2023-01-30T18:59:04.061Z,74.28
2023-01-30T19:01:38.610Z,73.86
2023-01-30T19:04:07.643Z,74.60
2023-01-30T19:06:38.885Z,73.93
2023-01-30T19:09:06.327Z,74.95
2023-01-30T19:11:52.272Z,74.49
2023-01-30T19:14:18.869Z,74.75
2023-01-30T19:16:45.305Z,74.43
2023-01-30T19:19:11.936Z,74.17
2023-01-30T19:21:38.615Z,74.09
2023-01-30T19:24:08.193Z,73.55
2023-01-30T19:26:35.030Z,73.42
2023-01-30T19:29:01.801Z,73.41
2023-01-30T19:31:28.455Z,73.56
2023-01-30T19:33:58.279Z,73.56
2023-01-30T19:36:26.177Z,74.00
2023-01-30T19:38:52.659Z,73.96
2023-01-30T19:41:22.349Z,74.05
2023-01-30T19:43:49.153Z,74.45
2023-01-30T19:46:15.738Z,74.48
2023-01-30T19:48:43.541Z,74.21
2023-01-30T19:51:15.745Z,73.67
2023-01-30T19:53:44.563Z,74.24
2023-01-30T19:56:12.671Z,74.29
2023-01-30T19:58:40.620Z,74.49
2023-01-30T20:01:12.925Z,73.63
2023-01-30T20:03:40.616Z,74.42
2023-01-30T20:06:13.127Z,73.77
2023-01-30T20:08:39.918Z,74.71
2023-01-30T20:11:08.628Z,74.49
2023-01-30T20:13:35.709Z,74.47
2023-01-30T20:16:06.867Z,73.78
2023-01-30T20:18:35.311Z,74.45
2023-01-30T20:21:10.308Z,74.30
2023-01-30T20:23:37.378Z,74.87
2023-01-30T20:26:05.780Z,74.52
2023-01-30T20:28:33.275Z,74.33
2023-01-30T20:31:00.406Z,74.37
2023-01-30T20:33:28.940Z,74.74
2023-01-30T20:36:01.137Z,73.48
2023-01-30T20:38:31.278Z,73.80
2023-01-30T20:41:06.022Z,73.27
2023-01-30T20:43:34.177Z,74.15
2023-01-30T20:46:09.373Z,73.30
2023-01-30T20:48:36.434Z,74.59
2023-01-30T20:51:05.431Z,74.63
2023-01-30T20:53:32.299Z,74.69
2023-01-30T20:56:00.151Z,75.07
2023-01-30T20:58:28.000Z,74.98
2023-01-30T21:00:54.976Z,75.12
2023-01-30T21:03:25.387Z,74.41
2023-01-30T21:05:59.316Z,74.18
2023-01-30T21:08:26.546Z,75.17
2023-01-30T21:10:54.325Z,75.24
2023-01-30T21:13:21.427Z,75.20
2023-01-30T21:15:48.267Z,74.87
2023-01-30T21:18:14.675Z,75.02
2023-01-30T21:20:48.805Z,73.90
2023-01-30T21:23:15.534Z,74.87
2023-01-30T21:25:41.850Z,74.24
2023-01-30T21:28:08.181Z,74.12
2023-01-30T21:30:35.838Z,74.07
2023-01-30T21:33:02.235Z,73.72
2023-01-30T21:35:28.546Z,74.10
2023-01-30T21:38:13.592Z,74.46
2023-01-30T21:40:58.742Z,74.16
2023-01-30T21:43:25.116Z,74.53
2023-01-30T21:45:58.056Z,73.80
2023-01-30T21:48:24.356Z,73.24
2023-01-30T21:50:50.748Z,74.93
2023-01-30T21:53:17.131Z,75.34
2023-01-30T21:55:43.580Z,76.04
2023-01-30T21:58:09.936Z,75.78
2023-01-30T22:00:36.775Z,75.60
2023-01-30T22:03:03.314Z,75.39
2023-01-30T22:05:36.533Z,75.56
2023-01-30T22:08:04.939Z,75.43
2023-01-30T22:10:31.349Z,75.35
2023-01-30T22:12:57.700Z,75.22
2023-01-30T22:15:24.038Z,74.93
2023-01-30T22:17:50.409Z,74.70
2023-01-30T22:20:17.157Z,74.79
2023-01-30T22:22:43.479Z,74.85
2023-01-30T22:25:09.952Z,74.37
2023-01-30T22:27:36.308Z,74.23
2023-01-30T22:30:02.733Z,74.53
2023-01-30T22:32:29.180Z,74.33
2023-01-30T22:34:55.567Z,74.75
2023-01-30T22:37:21.858Z,74.67
2023-01-30T22:39:48.250Z,74.32
2023-01-30T22:42:14.804Z,74.19
2023-01-30T22:44:41.777Z,74.35
2023-01-30T22:47:08.346Z,74.48
2023-01-30T22:49:34.775Z,74.65
2023-01-30T22:52:01.702Z,74.60
2023-01-30T22:54:28.433Z,74.38
2023-01-30T22:56:54.934Z,74.39
2023-01-30T22:59:21.761Z,74.61
2023-01-30T23:01:52.767Z,74.53
2023-01-30T23:04:23.738Z,74.20
2023-01-30T23:06:53.454Z,74.58
2023-01-30T23:09:22.301Z,74.74
2023-01-30T23:12:11.046Z,74.30
2023-01-30T23:14:38.299Z,75.07
2023-01-30T23:17:26.191Z,75.01
2023-01-30T23:19:54.051Z,74.98
2023-01-30T23:22:20.619Z,75.29
2023-01-30T23:24:48.560Z,75.64
2023-01-30T23:27:15.016Z,76.06
2023-01-30T23:29:41.555Z,75.99
2023-01-30T23:32:08.029Z,76.04
2023-01-30T23:34:34.641Z,76.22
2023-01-30T23:37:00.984Z,76.52
2023-01-30T23:39:27.509Z,76.56
2023-01-30T23:41:53.886Z,76.60
2023-01-30T23:44:20.692Z,76.71
2023-01-30T23:46:47.100Z,76.90
2023-01-30T23:49:14.717Z,76.43
2023-01-30T23:51:44.216Z,76.37
2023-01-30T23:54:13.069Z,76.07
2023-01-30T23:56:43.110Z,75.58
2023-01-30T23:59:10.913Z,75.78
